sensor_id;sensor_type;location;lat;lon;timestamp;P1;durP1;ratioP1;P2;durP2;ratioP2
5060;SDS011;2549;52.128;21.068;2023-05-16T00:00:35;4.30;;;3.37;;
5060;SDS011;2549;52.128;21.068;2023-05-16T00:03:03;6.53;;;2.83;;
5060;SDS011;2549;52.128;21.068;2023-05-16T00:05:31;3.17;;;2.87;;
5060;SDS011;2549;52.128;21.068;2023-05-16T00:07:58;3.47;;;3.27;;
5060;SDS011;2549;52.128;21.068;2023-05-16T00:10:25;3.07;;;2.87;;
5060;SDS011;2549;52.128;21.068;2023-05-16T00:12:52;5.10;;;3.60;;
5060;SDS011;2549;52.128;21.068;2023-05-16T00:15:19;4.50;;;3.90;;
5060;SDS011;2549;52.128;21.068;2023-05-16T00:17:47;3.40;;;3.20;;
5060;SDS011;2549;52.128;21.068;2023-05-16T00:20:15;4.80;;;3.67;;
5060;SDS011;2549;52.128;21.068;2023-05-16T00:22:44;5.70;;;3.67;;
5060;SDS011;2549;52.128;21.068;2023-05-16T00:25:11;3.87;;;3.50;;
5060;SDS011;2549;52.128;21.068;2023-05-16T00:27:38;4.00;;;3.70;;
5060;SDS011;2549;52.128;21.068;2023-05-16T00:30:05;4.03;;;3.63;;
5060;SDS011;2549;52.128;21.068;2023-05-16T00:32:32;4.70;;;4.30;;
5060;SDS011;2549;52.128;21.068;2023-05-16T00:34:59;3.43;;;3.23;;
5060;SDS011;2549;52.128;21.068;2023-05-16T00:37:26;8.03;;;4.53;;
5060;SDS011;2549;52.128;21.068;2023-05-16T00:39:53;3.77;;;3.47;;
5060;SDS011;2549;52.128;21.068;2023-05-16T00:42:23;4.63;;;4.23;;
5060;SDS011;2549;52.128;21.068;2023-05-16T00:44:50;4.03;;;3.67;;
5060;SDS011;2549;52.128;21.068;2023-05-16T00:47:17;4.00;;;3.80;;
5060;SDS011;2549;52.128;21.068;2023-05-16T00:49:43;19.43;;;4.43;;
5060;SDS011;2549;52.128;21.068;2023-05-16T00:52:10;4.03;;;3.70;;
5060;SDS011;2549;52.128;21.068;2023-05-16T00:54:37;4.00;;;3.70;;
5060;SDS011;2549;52.128;21.068;2023-05-16T00:57:04;6.80;;;3.90;;
5060;SDS011;2549;52.128;21.068;2023-05-16T00:59:32;4.23;;;3.83;;
5060;SDS011;2549;52.128;21.068;2023-05-16T01:01:59;6.03;;;4.40;;
5060;SDS011;2549;52.128;21.068;2023-05-16T01:04:26;4.60;;;4.00;;
5060;SDS011;2549;52.128;21.068;2023-05-16T01:06:55;4.40;;;4.10;;
5060;SDS011;2549;52.128;21.068;2023-05-16T01:09:22;4.53;;;3.87;;
5060;SDS011;2549;52.128;21.068;2023-05-16T01:11:56;4.57;;;4.27;;
5060;SDS011;2549;52.128;21.068;2023-05-16T01:20:28;6.00;;;4.53;;
5060;SDS011;2549;52.128;21.068;2023-05-16T01:28:35;5.00;;;4.53;;
5060;SDS011;2549;52.128;21.068;2023-05-16T01:31:03;9.00;;;4.80;;
5060;SDS011;2549;52.128;21.068;2023-05-16T01:33:30;4.33;;;3.93;;
5060;SDS011;2549;52.128;21.068;2023-05-16T01:36:05;4.60;;;4.30;;
5060;SDS011;2549;52.128;21.068;2023-05-16T01:44:36;12.27;;;4.57;;
5060;SDS011;2549;52.128;21.068;2023-05-16T01:47:22;4.60;;;4.20;;
5060;SDS011;2549;52.128;21.068;2023-05-16T01:52:21;5.73;;;5.17;;
5060;SDS011;2549;52.128;21.068;2023-05-16T01:54:53;8.30;;;4.87;;
5060;SDS011;2549;52.128;21.068;2023-05-16T01:57:23;5.87;;;4.67;;
5060;SDS011;2549;52.128;21.068;2023-05-16T01:59:52;4.93;;;4.43;;
5060;SDS011;2549;52.128;21.068;2023-05-16T02:02:19;5.80;;;5.27;;
5060;SDS011;2549;52.128;21.068;2023-05-16T02:04:46;5.63;;;5.10;;
5060;SDS011;2549;52.128;21.068;2023-05-16T02:07:13;8.10;;;5.40;;
5060;SDS011;2549;52.128;21.068;2023-05-16T02:09:40;8.60;;;5.40;;
5060;SDS011;2549;52.128;21.068;2023-05-16T02:12:07;10.47;;;4.53;;
5060;SDS011;2549;52.128;21.068;2023-05-16T02:14:34;7.17;;;5.00;;
5060;SDS011;2549;52.128;21.068;2023-05-16T02:17:01;4.43;;;4.00;;
5060;SDS011;2549;52.128;21.068;2023-05-16T02:19:28;5.93;;;5.43;;
5060;SDS011;2549;52.128;21.068;2023-05-16T02:21:54;5.90;;;5.33;;
5060;SDS011;2549;52.128;21.068;2023-05-16T02:24:21;5.97;;;5.23;;
5060;SDS011;2549;52.128;21.068;2023-05-16T02:26:48;7.93;;;5.03;;
5060;SDS011;2549;52.128;21.068;2023-05-16T02:29:15;6.23;;;4.90;;
5060;SDS011;2549;52.128;21.068;2023-05-16T02:31:42;5.60;;;4.90;;
5060;SDS011;2549;52.128;21.068;2023-05-16T02:34:09;5.23;;;4.73;;
5060;SDS011;2549;52.128;21.068;2023-05-16T02:36:36;6.23;;;5.10;;
5060;SDS011;2549;52.128;21.068;2023-05-16T02:39:03;6.20;;;5.60;;
5060;SDS011;2549;52.128;21.068;2023-05-16T02:41:31;6.17;;;5.60;;
5060;SDS011;2549;52.128;21.068;2023-05-16T02:43:58;6.47;;;5.77;;
5060;SDS011;2549;52.128;21.068;2023-05-16T02:46:29;7.70;;;5.30;;
5060;SDS011;2549;52.128;21.068;2023-05-16T02:48:57;6.20;;;4.37;;
5060;SDS011;2549;52.128;21.068;2023-05-16T02:51:25;5.97;;;5.37;;
5060;SDS011;2549;52.128;21.068;2023-05-16T02:53:53;11.00;;;4.90;;
5060;SDS011;2549;52.128;21.068;2023-05-16T02:56:25;13.70;;;4.67;;
5060;SDS011;2549;52.128;21.068;2023-05-16T02:58:54;13.40;;;6.80;;
5060;SDS011;2549;52.128;21.068;2023-05-16T03:01:21;4.93;;;4.53;;
5060;SDS011;2549;52.128;21.068;2023-05-16T03:03:48;5.70;;;5.10;;
5060;SDS011;2549;52.128;21.068;2023-05-16T03:06:15;5.37;;;4.87;;
5060;SDS011;2549;52.128;21.068;2023-05-16T03:08:42;10.90;;;5.60;;
5060;SDS011;2549;52.128;21.068;2023-05-16T03:11:09;5.97;;;5.47;;
5060;SDS011;2549;52.128;21.068;2023-05-16T03:13:36;5.77;;;5.17;;
5060;SDS011;2549;52.128;21.068;2023-05-16T03:16:03;7.73;;;5.00;;
5060;SDS011;2549;52.128;21.068;2023-05-16T03:18:31;5.70;;;5.20;;
5060;SDS011;2549;52.128;21.068;2023-05-16T03:20:58;5.90;;;5.00;;
5060;SDS011;2549;52.128;21.068;2023-05-16T03:23:25;9.70;;;5.20;;
5060;SDS011;2549;52.128;21.068;2023-05-16T03:25:52;5.60;;;5.10;;
5060;SDS011;2549;52.128;21.068;2023-05-16T03:28:19;8.23;;;5.73;;
5060;SDS011;2549;52.128;21.068;2023-05-16T03:30:46;6.70;;;5.33;;
5060;SDS011;2549;52.128;21.068;2023-05-16T03:33:13;8.27;;;6.10;;
5060;SDS011;2549;52.128;21.068;2023-05-16T03:35:41;6.03;;;5.53;;
5060;SDS011;2549;52.128;21.068;2023-05-16T03:38:09;6.70;;;5.77;;
5060;SDS011;2549;52.128;21.068;2023-05-16T03:40:35;6.63;;;6.00;;
5060;SDS011;2549;52.128;21.068;2023-05-16T03:43:02;7.10;;;6.03;;
5060;SDS011;2549;52.128;21.068;2023-05-16T03:45:29;7.27;;;6.37;;
5060;SDS011;2549;52.128;21.068;2023-05-16T03:47:56;9.60;;;6.10;;
5060;SDS011;2549;52.128;21.068;2023-05-16T03:50:23;7.10;;;6.07;;
5060;SDS011;2549;52.128;21.068;2023-05-16T03:52:50;7.47;;;6.00;;
5060;SDS011;2549;52.128;21.068;2023-05-16T03:55:21;10.27;;;7.00;;
5060;SDS011;2549;52.128;21.068;2023-05-16T03:57:47;9.93;;;6.60;;
5060;SDS011;2549;52.128;21.068;2023-05-16T04:00:15;8.30;;;7.50;;
5060;SDS011;2549;52.128;21.068;2023-05-16T04:02:42;7.37;;;6.67;;
5060;SDS011;2549;52.128;21.068;2023-05-16T04:05:10;7.03;;;6.33;;
5060;SDS011;2549;52.128;21.068;2023-05-16T04:07:37;7.33;;;6.60;;
5060;SDS011;2549;52.128;21.068;2023-05-16T04:10:05;8.00;;;6.67;;
5060;SDS011;2549;52.128;21.068;2023-05-16T04:12:32;9.10;;;6.13;;
5060;SDS011;2549;52.128;21.068;2023-05-16T04:14:59;6.73;;;5.90;;
5060;SDS011;2549;52.128;21.068;2023-05-16T04:17:26;7.37;;;6.43;;
5060;SDS011;2549;52.128;21.068;2023-05-16T04:19:53;8.67;;;6.20;;
5060;SDS011;2549;52.128;21.068;2023-05-16T04:22:23;9.27;;;6.13;;
5060;SDS011;2549;52.128;21.068;2023-05-16T04:24:50;8.77;;;6.10;;
5060;SDS011;2549;52.128;21.068;2023-05-16T04:27:17;16.13;;;6.07;;
5060;SDS011;2549;52.128;21.068;2023-05-16T04:29:43;6.40;;;5.80;;
5060;SDS011;2549;52.128;21.068;2023-05-16T04:32:10;8.70;;;6.23;;
5060;SDS011;2549;52.128;21.068;2023-05-16T04:34:37;10.63;;;6.33;;
5060;SDS011;2549;52.128;21.068;2023-05-16T04:37:06;7.37;;;6.60;;
5060;SDS011;2549;52.128;21.068;2023-05-16T04:39:34;6.10;;;5.40;;
5060;SDS011;2549;52.128;21.068;2023-05-16T04:42:01;11.53;;;6.30;;
5060;SDS011;2549;52.128;21.068;2023-05-16T04:44:29;6.20;;;5.60;;
5060;SDS011;2549;52.128;21.068;2023-05-16T04:46:56;6.47;;;5.43;;
5060;SDS011;2549;52.128;21.068;2023-05-16T04:49:23;7.90;;;5.30;;
5060;SDS011;2549;52.128;21.068;2023-05-16T04:51:50;6.80;;;5.27;;
5060;SDS011;2549;52.128;21.068;2023-05-16T04:54:17;5.70;;;4.90;;
5060;SDS011;2549;52.128;21.068;2023-05-16T04:56:44;5.90;;;5.30;;
5060;SDS011;2549;52.128;21.068;2023-05-16T04:59:11;9.97;;;5.20;;
5060;SDS011;2549;52.128;21.068;2023-05-16T05:01:38;10.37;;;4.77;;
5060;SDS011;2549;52.128;21.068;2023-05-16T05:04:05;7.57;;;5.30;;
5060;SDS011;2549;52.128;21.068;2023-05-16T05:06:32;6.37;;;5.57;;
5060;SDS011;2549;52.128;21.068;2023-05-16T05:08:59;5.63;;;4.93;;
5060;SDS011;2549;52.128;21.068;2023-05-16T05:11:25;8.90;;;5.53;;
5060;SDS011;2549;52.128;21.068;2023-05-16T05:13:52;6.10;;;5.50;;
5060;SDS011;2549;52.128;21.068;2023-05-16T05:16:19;10.70;;;6.60;;
5060;SDS011;2549;52.128;21.068;2023-05-16T05:18:46;6.40;;;5.80;;
5060;SDS011;2549;52.128;21.068;2023-05-16T05:21:13;5.70;;;5.10;;
5060;SDS011;2549;52.128;21.068;2023-05-16T05:23:40;5.00;;;4.50;;
5060;SDS011;2549;52.128;21.068;2023-05-16T05:26:07;6.20;;;5.60;;
5060;SDS011;2549;52.128;21.068;2023-05-16T05:28:34;5.40;;;4.90;;
5060;SDS011;2549;52.128;21.068;2023-05-16T05:31:03;5.30;;;4.80;;
5060;SDS011;2549;52.128;21.068;2023-05-16T05:33:33;5.57;;;4.93;;
5060;SDS011;2549;52.128;21.068;2023-05-16T05:36:00;5.23;;;4.83;;
5060;SDS011;2549;52.128;21.068;2023-05-16T05:38:29;6.73;;;4.93;;
5060;SDS011;2549;52.128;21.068;2023-05-16T05:40:56;5.90;;;5.40;;
5060;SDS011;2549;52.128;21.068;2023-05-16T05:43:23;6.30;;;5.03;;
5060;SDS011;2549;52.128;21.068;2023-05-16T05:45:50;6.43;;;5.60;;
5060;SDS011;2549;52.128;21.068;2023-05-16T05:48:17;7.83;;;5.60;;
5060;SDS011;2549;52.128;21.068;2023-05-16T05:50:44;6.33;;;5.40;;
5060;SDS011;2549;52.128;21.068;2023-05-16T05:53:11;5.47;;;5.07;;
5060;SDS011;2549;52.128;21.068;2023-05-16T05:55:38;5.90;;;5.30;;
5060;SDS011;2549;52.128;21.068;2023-05-16T05:58:07;16.20;;;5.97;;
5060;SDS011;2549;52.128;21.068;2023-05-16T06:00:34;6.80;;;5.23;;
5060;SDS011;2549;52.128;21.068;2023-05-16T06:03:01;12.40;;;6.00;;
5060;SDS011;2549;52.128;21.068;2023-05-16T06:05:28;6.53;;;5.87;;
5060;SDS011;2549;52.128;21.068;2023-05-16T06:07:56;5.47;;;4.83;;
5060;SDS011;2549;52.128;21.068;2023-05-16T06:10:22;5.67;;;5.13;;
5060;SDS011;2549;52.128;21.068;2023-05-16T06:12:49;7.27;;;5.13;;
5060;SDS011;2549;52.128;21.068;2023-05-16T06:15:16;5.87;;;5.20;;
5060;SDS011;2549;52.128;21.068;2023-05-16T06:17:43;7.23;;;4.90;;
5060;SDS011;2549;52.128;21.068;2023-05-16T06:20:10;10.60;;;5.00;;
5060;SDS011;2549;52.128;21.068;2023-05-16T06:22:37;5.57;;;4.40;;
5060;SDS011;2549;52.128;21.068;2023-05-16T06:25:04;5.43;;;4.93;;
5060;SDS011;2549;52.128;21.068;2023-05-16T06:27:31;6.27;;;4.87;;
5060;SDS011;2549;52.128;21.068;2023-05-16T06:29:58;5.43;;;4.93;;
5060;SDS011;2549;52.128;21.068;2023-05-16T06:32:25;5.03;;;4.53;;
5060;SDS011;2549;52.128;21.068;2023-05-16T06:34:52;6.67;;;4.77;;
5060;SDS011;2549;52.128;21.068;2023-05-16T06:37:19;4.00;;;3.73;;
5060;SDS011;2549;52.128;21.068;2023-05-16T06:39:46;5.03;;;4.57;;
5060;SDS011;2549;52.128;21.068;2023-05-16T06:42:13;5.17;;;4.67;;
5060;SDS011;2549;52.128;21.068;2023-05-16T06:44:40;5.80;;;4.67;;
5060;SDS011;2549;52.128;21.068;2023-05-16T06:47:07;4.23;;;3.90;;
5060;SDS011;2549;52.128;21.068;2023-05-16T06:49:34;4.47;;;4.17;;
5060;SDS011;2549;52.128;21.068;2023-05-16T06:52:01;5.90;;;4.30;;
5060;SDS011;2549;52.128;21.068;2023-05-16T06:54:28;4.70;;;4.30;;
5060;SDS011;2549;52.128;21.068;2023-05-16T06:56:54;11.03;;;5.00;;
5060;SDS011;2549;52.128;21.068;2023-05-16T06:59:21;5.53;;;5.03;;
5060;SDS011;2549;52.128;21.068;2023-05-16T07:01:50;5.23;;;4.83;;
5060;SDS011;2549;52.128;21.068;2023-05-16T07:04:17;6.37;;;5.10;;
5060;SDS011;2549;52.128;21.068;2023-05-16T07:06:44;4.50;;;4.20;;
5060;SDS011;2549;52.128;21.068;2023-05-16T07:09:10;17.60;;;5.30;;
5060;SDS011;2549;52.128;21.068;2023-05-16T07:11:37;5.53;;;5.07;;
5060;SDS011;2549;52.128;21.068;2023-05-16T07:14:04;5.10;;;4.60;;
5060;SDS011;2549;52.128;21.068;2023-05-16T07:16:31;4.87;;;4.47;;
5060;SDS011;2549;52.128;21.068;2023-05-16T07:18:58;5.13;;;4.73;;
5060;SDS011;2549;52.128;21.068;2023-05-16T07:21:25;4.47;;;4.07;;
5060;SDS011;2549;52.128;21.068;2023-05-16T07:23:53;5.67;;;5.00;;
5060;SDS011;2549;52.128;21.068;2023-05-16T07:26:20;6.83;;;4.93;;
5060;SDS011;2549;52.128;21.068;2023-05-16T07:28:48;5.37;;;4.90;;
5060;SDS011;2549;52.128;21.068;2023-05-16T07:31:15;5.87;;;5.30;;
5060;SDS011;2549;52.128;21.068;2023-05-16T07:33:43;6.93;;;5.43;;
5060;SDS011;2549;52.128;21.068;2023-05-16T07:36:12;6.13;;;4.97;;
5060;SDS011;2549;52.128;21.068;2023-05-16T07:38:42;5.87;;;5.27;;
5060;SDS011;2549;52.128;21.068;2023-05-16T07:41:10;6.80;;;4.67;;
5060;SDS011;2549;52.128;21.068;2023-05-16T07:43:37;17.00;;;5.27;;
5060;SDS011;2549;52.128;21.068;2023-05-16T07:46:03;7.90;;;4.23;;
5060;SDS011;2549;52.128;21.068;2023-05-16T07:48:31;6.27;;;4.10;;
5060;SDS011;2549;52.128;21.068;2023-05-16T07:50:57;11.90;;;4.60;;
5060;SDS011;2549;52.128;21.068;2023-05-16T07:53:24;4.33;;;4.03;;
5060;SDS011;2549;52.128;21.068;2023-05-16T07:55:51;3.90;;;3.60;;
5060;SDS011;2549;52.128;21.068;2023-05-16T07:58:18;4.07;;;3.87;;
5060;SDS011;2549;52.128;21.068;2023-05-16T08:00:45;4.27;;;3.97;;
5060;SDS011;2549;52.128;21.068;2023-05-16T08:03:12;4.83;;;4.10;;
5060;SDS011;2549;52.128;21.068;2023-05-16T08:05:39;4.37;;;3.90;;
5060;SDS011;2549;52.128;21.068;2023-05-16T08:08:06;8.93;;;4.30;;
5060;SDS011;2549;52.128;21.068;2023-05-16T08:10:33;5.57;;;3.67;;
5060;SDS011;2549;52.128;21.068;2023-05-16T08:13:00;3.83;;;3.57;;
5060;SDS011;2549;52.128;21.068;2023-05-16T08:15:27;3.10;;;2.93;;
5060;SDS011;2549;52.128;21.068;2023-05-16T08:17:57;3.20;;;2.50;;
5060;SDS011;2549;52.128;21.068;2023-05-16T08:20:25;3.20;;;2.90;;
5060;SDS011;2549;52.128;21.068;2023-05-16T08:22:52;2.83;;;2.73;;
5060;SDS011;2549;52.128;21.068;2023-05-16T08:25:19;3.17;;;2.67;;
5060;SDS011;2549;52.128;21.068;2023-05-16T08:27:48;3.33;;;2.60;;
5060;SDS011;2549;52.128;21.068;2023-05-16T08:30:16;2.10;;;1.90;;
5060;SDS011;2549;52.128;21.068;2023-05-16T08:32:43;4.23;;;2.23;;
5060;SDS011;2549;52.128;21.068;2023-05-16T08:35:10;2.10;;;2.00;;
5060;SDS011;2549;52.128;21.068;2023-05-16T08:37:38;2.57;;;2.37;;
5060;SDS011;2549;52.128;21.068;2023-05-16T08:40:05;2.00;;;1.90;;
5060;SDS011;2549;52.128;21.068;2023-05-16T08:42:34;3.87;;;1.60;;
5060;SDS011;2549;52.128;21.068;2023-05-16T08:45:02;1.97;;;1.80;;
5060;SDS011;2549;52.128;21.068;2023-05-16T08:47:31;8.00;;;2.60;;
5060;SDS011;2549;52.128;21.068;2023-05-16T08:49:58;2.73;;;1.70;;
5060;SDS011;2549;52.128;21.068;2023-05-16T08:52:27;3.53;;;2.20;;
5060;SDS011;2549;52.128;21.068;2023-05-16T08:54:58;1.53;;;1.53;;
5060;SDS011;2549;52.128;21.068;2023-05-16T08:57:36;2.60;;;2.40;;
5060;SDS011;2549;52.128;21.068;2023-05-16T09:00:05;1.83;;;1.73;;
5060;SDS011;2549;52.128;21.068;2023-05-16T09:02:40;1.53;;;1.53;;
5060;SDS011;2549;52.128;21.068;2023-05-16T09:05:10;2.77;;;1.77;;
5060;SDS011;2549;52.128;21.068;2023-05-16T09:07:38;1.77;;;1.67;;
5060;SDS011;2549;52.128;21.068;2023-05-16T09:10:05;2.67;;;1.90;;
5060;SDS011;2549;52.128;21.068;2023-05-16T09:12:33;2.10;;;1.90;;
5060;SDS011;2549;52.128;21.068;2023-05-16T09:15:01;2.43;;;1.80;;
5060;SDS011;2549;52.128;21.068;2023-05-16T09:17:35;1.43;;;1.43;;
5060;SDS011;2549;52.128;21.068;2023-05-16T09:20:13;2.10;;;1.50;;
5060;SDS011;2549;52.128;21.068;2023-05-16T09:25:19;1.53;;;1.43;;
5060;SDS011;2549;52.128;21.068;2023-05-16T09:27:57;1.70;;;1.60;;
5060;SDS011;2549;52.128;21.068;2023-05-16T09:30:27;1.67;;;1.57;;
5060;SDS011;2549;52.128;21.068;2023-05-16T09:32:57;2.60;;;1.70;;
5060;SDS011;2549;52.128;21.068;2023-05-16T09:35:24;2.47;;;1.30;;
5060;SDS011;2549;52.128;21.068;2023-05-16T09:37:55;1.97;;;1.87;;
5060;SDS011;2549;52.128;21.068;2023-05-16T09:40:22;2.40;;;2.20;;
5060;SDS011;2549;52.128;21.068;2023-05-16T09:43:00;3.13;;;1.70;;
5060;SDS011;2549;52.128;21.068;2023-05-16T09:45:30;1.60;;;1.50;;
5060;SDS011;2549;52.128;21.068;2023-05-16T09:48:00;2.13;;;2.07;;
5060;SDS011;2549;52.128;21.068;2023-05-16T09:50:30;1.90;;;1.80;;
5060;SDS011;2549;52.128;21.068;2023-05-16T09:52:59;2.27;;;1.73;;
5060;SDS011;2549;52.128;21.068;2023-05-16T09:55:27;1.57;;;1.47;;
5060;SDS011;2549;52.128;21.068;2023-05-16T09:57:54;1.60;;;1.50;;
5060;SDS011;2549;52.128;21.068;2023-05-16T10:00:21;1.37;;;1.37;;
5060;SDS011;2549;52.128;21.068;2023-05-16T10:02:59;1.30;;;1.30;;
5060;SDS011;2549;52.128;21.068;2023-05-16T10:05:30;3.70;;;1.30;;
5060;SDS011;2549;52.128;21.068;2023-05-16T10:07:57;2.40;;;1.30;;
5060;SDS011;2549;52.128;21.068;2023-05-16T10:10:24;1.07;;;1.07;;
5060;SDS011;2549;52.128;21.068;2023-05-16T10:12:53;1.03;;;1.03;;
5060;SDS011;2549;52.128;21.068;2023-05-16T10:15:24;4.40;;;1.17;;
5060;SDS011;2549;52.128;21.068;2023-05-16T10:17:52;1.80;;;1.10;;
5060;SDS011;2549;52.128;21.068;2023-05-16T10:20:24;1.33;;;1.33;;
5060;SDS011;2549;52.128;21.068;2023-05-16T10:22:52;1.20;;;1.10;;
5060;SDS011;2549;52.128;21.068;2023-05-16T10:27:55;3.27;;;0.90;;
5060;SDS011;2549;52.128;21.068;2023-05-16T10:30:22;1.43;;;1.23;;
5060;SDS011;2549;52.128;21.068;2023-05-16T10:32:50;2.53;;;1.00;;
5060;SDS011;2549;52.128;21.068;2023-05-16T10:35:18;1.13;;;1.07;;
5060;SDS011;2549;52.128;21.068;2023-05-16T10:37:47;1.53;;;0.97;;
5060;SDS011;2549;52.128;21.068;2023-05-16T10:40:15;0.90;;;0.90;;
5060;SDS011;2549;52.128;21.068;2023-05-16T10:42:53;1.27;;;1.27;;
5060;SDS011;2549;52.128;21.068;2023-05-16T10:45:23;4.10;;;1.10;;
5060;SDS011;2549;52.128;21.068;2023-05-16T10:47:51;1.73;;;1.30;;
5060;SDS011;2549;52.128;21.068;2023-05-16T10:50:38;1.00;;;1.00;;
5060;SDS011;2549;52.128;21.068;2023-05-16T10:53:21;1.00;;;1.00;;
5060;SDS011;2549;52.128;21.068;2023-05-16T11:06:30;4.73;;;1.60;;
5060;SDS011;2549;52.128;21.068;2023-05-16T11:11:37;0.93;;;0.93;;
5060;SDS011;2549;52.128;21.068;2023-05-16T11:16:48;0.93;;;0.93;;
5060;SDS011;2549;52.128;21.068;2023-05-16T11:19:29;1.20;;;1.13;;
5060;SDS011;2549;52.128;21.068;2023-05-16T11:24:55;3.47;;;0.90;;
5060;SDS011;2549;52.128;21.068;2023-05-16T11:27:29;0.80;;;0.80;;
5060;SDS011;2549;52.128;21.068;2023-05-16T11:32:36;1.73;;;1.17;;
5060;SDS011;2549;52.128;21.068;2023-05-16T11:35:04;2.00;;;1.07;;
5060;SDS011;2549;52.128;21.068;2023-05-16T11:37:34;1.00;;;1.00;;
5060;SDS011;2549;52.128;21.068;2023-05-16T11:40:02;1.10;;;1.07;;
5060;SDS011;2549;52.128;21.068;2023-05-16T11:42:30;1.33;;;1.23;;
5060;SDS011;2549;52.128;21.068;2023-05-16T11:45:06;1.67;;;1.10;;
5060;SDS011;2549;52.128;21.068;2023-05-16T11:47:44;1.20;;;1.10;;
5060;SDS011;2549;52.128;21.068;2023-05-16T11:50:14;1.10;;;1.10;;
5060;SDS011;2549;52.128;21.068;2023-05-16T11:52:43;1.00;;;1.00;;
5060;SDS011;2549;52.128;21.068;2023-05-16T11:55:20;1.43;;;1.27;;
5060;SDS011;2549;52.128;21.068;2023-05-16T11:58:07;1.50;;;1.40;;
5060;SDS011;2549;52.128;21.068;2023-05-16T12:00:35;1.93;;;1.20;;
5060;SDS011;2549;52.128;21.068;2023-05-16T12:03:12;5.73;;;1.10;;
5060;SDS011;2549;52.128;21.068;2023-05-16T12:05:39;1.30;;;1.30;;
5060;SDS011;2549;52.128;21.068;2023-05-16T12:08:21;1.90;;;0.90;;
5060;SDS011;2549;52.128;21.068;2023-05-16T12:10:50;1.27;;;1.00;;
5060;SDS011;2549;52.128;21.068;2023-05-16T12:13:18;0.93;;;0.93;;
5060;SDS011;2549;52.128;21.068;2023-05-16T12:15:46;1.10;;;1.10;;
5060;SDS011;2549;52.128;21.068;2023-05-16T12:18:14;1.80;;;1.37;;
5060;SDS011;2549;52.128;21.068;2023-05-16T12:20:42;1.20;;;1.20;;
5060;SDS011;2549;52.128;21.068;2023-05-16T12:23:10;3.20;;;1.17;;
5060;SDS011;2549;52.128;21.068;2023-05-16T12:25:39;1.53;;;1.03;;
5060;SDS011;2549;52.128;21.068;2023-05-16T12:28:12;1.40;;;1.30;;
5060;SDS011;2549;52.128;21.068;2023-05-16T12:30:40;9.67;;;1.10;;
5060;SDS011;2549;52.128;21.068;2023-05-16T12:33:11;1.40;;;1.30;;
5060;SDS011;2549;52.128;21.068;2023-05-16T12:35:39;3.60;;;1.67;;
5060;SDS011;2549;52.128;21.068;2023-05-16T12:38:09;4.23;;;1.27;;
5060;SDS011;2549;52.128;21.068;2023-05-16T12:40:42;2.30;;;1.20;;
5060;SDS011;2549;52.128;21.068;2023-05-16T12:43:16;1.27;;;1.17;;
5060;SDS011;2549;52.128;21.068;2023-05-16T12:45:52;1.37;;;1.30;;
5060;SDS011;2549;52.128;21.068;2023-05-16T12:48:21;1.47;;;1.20;;
5060;SDS011;2549;52.128;21.068;2023-05-16T12:50:48;2.97;;;0.80;;
5060;SDS011;2549;52.128;21.068;2023-05-16T12:53:17;1.60;;;1.50;;
5060;SDS011;2549;52.128;21.068;2023-05-16T12:55:44;1.17;;;1.17;;
5060;SDS011;2549;52.128;21.068;2023-05-16T12:58:11;1.50;;;1.40;;
5060;SDS011;2549;52.128;21.068;2023-05-16T13:00:38;1.23;;;1.20;;
5060;SDS011;2549;52.128;21.068;2023-05-16T13:03:06;1.17;;;1.17;;
5060;SDS011;2549;52.128;21.068;2023-05-16T13:05:33;1.33;;;1.33;;
5060;SDS011;2549;52.128;21.068;2023-05-16T13:08:01;1.33;;;1.20;;
5060;SDS011;2549;52.128;21.068;2023-05-16T13:10:29;1.77;;;1.20;;
5060;SDS011;2549;52.128;21.068;2023-05-16T13:12:56;1.43;;;1.33;;
5060;SDS011;2549;52.128;21.068;2023-05-16T13:15:25;2.40;;;1.53;;
5060;SDS011;2549;52.128;21.068;2023-05-16T13:17:53;1.63;;;1.53;;
5060;SDS011;2549;52.128;21.068;2023-05-16T13:20:20;8.83;;;1.37;;
5060;SDS011;2549;52.128;21.068;2023-05-16T13:22:47;6.30;;;1.50;;
5060;SDS011;2549;52.128;21.068;2023-05-16T13:25:14;1.50;;;1.40;;
5060;SDS011;2549;52.128;21.068;2023-05-16T13:27:41;1.40;;;1.30;;
5060;SDS011;2549;52.128;21.068;2023-05-16T13:30:08;1.10;;;1.10;;
5060;SDS011;2549;52.128;21.068;2023-05-16T13:32:35;3.90;;;1.23;;
5060;SDS011;2549;52.128;21.068;2023-05-16T13:35:02;1.10;;;1.10;;
5060;SDS011;2549;52.128;21.068;2023-05-16T13:37:29;1.67;;;1.40;;
5060;SDS011;2549;52.128;21.068;2023-05-16T13:39:56;1.40;;;1.30;;
5060;SDS011;2549;52.128;21.068;2023-05-16T13:42:23;3.03;;;1.70;;
5060;SDS011;2549;52.128;21.068;2023-05-16T13:44:50;1.20;;;1.20;;
5060;SDS011;2549;52.128;21.068;2023-05-16T13:47:20;5.47;;;2.27;;
5060;SDS011;2549;52.128;21.068;2023-05-16T13:49:47;1.90;;;1.80;;
5060;SDS011;2549;52.128;21.068;2023-05-16T13:52:14;1.57;;;1.47;;
5060;SDS011;2549;52.128;21.068;2023-05-16T13:54:41;5.37;;;1.70;;
5060;SDS011;2549;52.128;21.068;2023-05-16T13:57:11;2.27;;;1.60;;
5060;SDS011;2549;52.128;21.068;2023-05-16T13:59:38;4.97;;;1.67;;
5060;SDS011;2549;52.128;21.068;2023-05-16T14:02:08;1.63;;;1.53;;
5060;SDS011;2549;52.128;21.068;2023-05-16T14:04:35;1.73;;;1.30;;
5060;SDS011;2549;52.128;21.068;2023-05-16T14:07:01;1.53;;;1.43;;
5060;SDS011;2549;52.128;21.068;2023-05-16T14:09:28;3.20;;;1.60;;
5060;SDS011;2549;52.128;21.068;2023-05-16T14:11:55;2.10;;;1.90;;
5060;SDS011;2549;52.128;21.068;2023-05-16T14:14:22;1.50;;;1.40;;
5060;SDS011;2549;52.128;21.068;2023-05-16T14:16:49;2.80;;;1.90;;
5060;SDS011;2549;52.128;21.068;2023-05-16T14:19:16;1.93;;;1.60;;
5060;SDS011;2549;52.128;21.068;2023-05-16T14:21:44;1.83;;;1.73;;
5060;SDS011;2549;52.128;21.068;2023-05-16T14:24:11;3.30;;;2.20;;
5060;SDS011;2549;52.128;21.068;2023-05-16T14:26:38;1.60;;;1.50;;
5060;SDS011;2549;52.128;21.068;2023-05-16T14:29:06;2.57;;;1.60;;
5060;SDS011;2549;52.128;21.068;2023-05-16T14:31:33;2.10;;;2.00;;
5060;SDS011;2549;52.128;21.068;2023-05-16T14:34:01;2.33;;;2.23;;
5060;SDS011;2549;52.128;21.068;2023-05-16T14:36:29;1.83;;;1.73;;
5060;SDS011;2549;52.128;21.068;2023-05-16T14:38:57;4.13;;;1.80;;
5060;SDS011;2549;52.128;21.068;2023-05-16T14:41:24;2.93;;;2.07;;
5060;SDS011;2549;52.128;21.068;2023-05-16T14:43:53;6.47;;;2.70;;
5060;SDS011;2549;52.128;21.068;2023-05-16T14:46:21;1.87;;;1.77;;
5060;SDS011;2549;52.128;21.068;2023-05-16T14:48:48;1.57;;;1.57;;
5060;SDS011;2549;52.128;21.068;2023-05-16T14:51:16;3.07;;;1.67;;
5060;SDS011;2549;52.128;21.068;2023-05-16T14:53:43;2.00;;;1.90;;
5060;SDS011;2549;52.128;21.068;2023-05-16T14:56:12;2.00;;;1.80;;
5060;SDS011;2549;52.128;21.068;2023-05-16T14:58:39;1.97;;;1.70;;
5060;SDS011;2549;52.128;21.068;2023-05-16T15:01:06;1.60;;;1.50;;
5060;SDS011;2549;52.128;21.068;2023-05-16T15:03:33;2.00;;;1.90;;
5060;SDS011;2549;52.128;21.068;2023-05-16T15:06:16;1.47;;;1.37;;
5060;SDS011;2549;52.128;21.068;2023-05-16T15:08:43;1.10;;;1.10;;
5060;SDS011;2549;52.128;21.068;2023-05-16T15:11:10;1.60;;;1.50;;
5060;SDS011;2549;52.128;21.068;2023-05-16T15:13:36;1.77;;;1.27;;
5060;SDS011;2549;52.128;21.068;2023-05-16T15:16:04;1.33;;;1.23;;
5060;SDS011;2549;52.128;21.068;2023-05-16T15:18:31;5.07;;;1.47;;
5060;SDS011;2549;52.128;21.068;2023-05-16T15:20:58;2.00;;;1.60;;
5060;SDS011;2549;52.128;21.068;2023-05-16T15:23:25;1.87;;;1.50;;
5060;SDS011;2549;52.128;21.068;2023-05-16T15:25:52;1.40;;;1.40;;
5060;SDS011;2549;52.128;21.068;2023-05-16T15:28:19;3.87;;;1.20;;
5060;SDS011;2549;52.128;21.068;2023-05-16T15:30:48;1.93;;;1.43;;
5060;SDS011;2549;52.128;21.068;2023-05-16T15:33:16;2.83;;;1.33;;
5060;SDS011;2549;52.128;21.068;2023-05-16T15:35:42;1.47;;;1.37;;
5060;SDS011;2549;52.128;21.068;2023-05-16T15:38:09;3.90;;;1.57;;
5060;SDS011;2549;52.128;21.068;2023-05-16T15:40:36;1.33;;;1.23;;
5060;SDS011;2549;52.128;21.068;2023-05-16T15:43:04;2.73;;;1.67;;
5060;SDS011;2549;52.128;21.068;2023-05-16T15:45:30;1.90;;;1.50;;
5060;SDS011;2549;52.128;21.068;2023-05-16T15:47:58;7.40;;;1.37;;
5060;SDS011;2549;52.128;21.068;2023-05-16T15:50:26;2.20;;;1.57;;
5060;SDS011;2549;52.128;21.068;2023-05-16T15:52:53;1.80;;;1.50;;